48ème Rallye National de la Giraglia
Championnat de France des Rallyes 2ème Division
1 1 TROJANI Pascal/VESPERINI Jean-Noel Citroën Ds3 A 8W 27:42,3
2 2 NAVARRA Francois-Frederic/TYRAN Mathieu Ford Fiesta A 8W 27:47,1 +00:04,8 +00:04,8
3 3 ALERINI Paul/VERDURI Olivier Ford Fiesta A 8W 28:05,8 +00:23,5 +00:18,7
4 7 MANZAGOL Jean-Marc/PATRONE Etienne Ford Fiesta R 5 28:12,8 +00:30,5 +00:07,0
5 6 LEANDRI Jean-Mathieu/GORGUILO Anthony Skoda Fabia R 5 28:18,3 +00:36,0 +00:05,5
6 60 FRAYMOUTH François/FELICELLI Romain Peugeot 208 R 2 30:09,1 +02:26,8 +01:50,8
7 5 SIMONETTI Robert/SIMONETTI Celia Citroën Ds3 A 8W 30:27,5 +02:45,2 +00:18,4
8 36 JAUMON Lionel/ROQUE Cyril Renault Clio 3 Rs F2 14 30:31,4 +02:49,1 +00:03,9
9 32 FLORI Jean-Pierre/GARCIA Dann Renault Clio Ragnotti F2 14 30:36,9 +02:54,6 +00:05,5
10 61 MICHELI Hugo/RAFFAELLI Yoann Peugeot 208 R 2 30:44,4 +03:02,1 +00:07,5
11 10 VILLORESI Christian/GIUDICELLI Cyril Skoda Fabia R 5 30:50,9 +03:08,6 +00:06,5
12 77 GANDOLFI Anthony/FINOCCHIARO Sébastien Citroën Saxo F2 13 31:03,5 +03:21,2 +00:12,6
13 24 VILLARET Benjamin/OBRECHT Justine Renault Clio R3 R 3 31:07,6 +03:25,3 +00:04,1
14 19 DEFENDINI Romain/GHERARDI Gérard Citroën Ds3 R 3 31:11,6 +03:29,3 +00:04,0
15 9 POLIDORI Frédéric/GOIA Laurent Ford Fiesta R 5 31:22,5 +03:40,2 +00:10,9
16 27 ROSSI Yannick/VOLPEI Baptiste Mitsubishi Evolution 9 N 4 31:36,9 +03:54,6 +00:14,4
17 85 PERETTI Myriam/SALINI Laura Peugeot 106 FA 6 31:37,8 +03:55,5 +00:00,9
18 21 CHIARONI Pascal/SANTINI Cédric Renault Clio R3 Max R 3 31:39,2 +03:56,9 +00:01,4
19 33 CAVILLAC Franck/CORSI Frédéric Renault Clio Rs F2 14 31:44,5 +04:02,2 +00:05,3
20 73 ARAGNEAU Philippe/MAZOTTI Francis Renault Clio FN 3 31:54,6 +04:12,3 +00:10,1
21 63 AGOSTINI Lucien/AGOSTINI Guillaume Peugeot 208 R 2B 31:59,3 +04:17,0 +00:04,7
22 38 RICO Michel/RICO Benjamin BMW --- F2 14 32:00,7 +04:18,4 +00:01,4
23 50 FERRARI Cédric/LAPINA Michela Peugeot 106 S16 FA 6K 32:00,7 +04:18,4
24 86 CASALE Julien/MORA Nicolas Citroën Saxo Vts FA 6 32:02,1 +04:19,8 +00:01,4
25 80 DIFEO José/DIFEO Julien Citroën C2 F2 13 32:02,2 +04:19,9 +00:00,1
26 62 SOREDA Pierre/BONIFET Julien Citroën C2 R2 Max R 2 32:14,8 +04:32,5 +00:12,6
27 31 GREGORY Ugo/GREGORY Coralie Renault Clio Rs F2 14 32:16,1 +04:33,8 +00:01,3
28 16 BONEL Antony/MANENT Roselyne Opel Speedster Turbo GT 10 32:19,9 +04:37,6 +00:03,8
29 28 AGOSTINI Anthony/ROYER Jérôme Renault Megane N 4 32:21,1 +04:38,8 +00:01,2
30 64 MAESTRACCI François/CASANOVA Sébastien Peugeot 208 R 2 32:26,4 +04:44,1 +00:05,3
31 54 COMOLE Lionel/DINI Gilbert Peugeot 106 S16 A 6K 32:31,7 +04:49,4 +00:05,3
32 79 FRANCISCI Yannick/VINCIGUERRA Lisa-Marie Peugeot 106 S16 F2 13 32:33,1 +04:50,8 +00:01,4
33 57 BRAZ Paulo/SCICOLONE Edouard Citroën C2 FA 6K 32:34,5 +04:52,2 +00:01,4
34 53 GHELARDINI Francois-Marie/ROCCA SERRA Laury Peugeot 206 Xs FA 6K 32:38,9 +04:56,6 +00:04,4
35 34 VANGIONI Francesco/THIERS Julien Renault Clio 3 Rs F2 14 32:39,7 +04:57,4 +00:00,8
36 51 MARIANI Anthony/PIEVE Laura Peugeot 206 Xs FA 6K 32:43,2 +05:00,9 +00:03,5
37 74 DONATI Xavier/CIAVALDINI France Renault Clio Williams FN 3 32:50,0 +05:07,7 +00:06,8
38 15 ROGNONI Daniel/BEAULIEU Noelise Porsche 911 GT 10 32:53,7 +05:11,4 +00:03,7
39 81 CLAUDE Christophe/DELATTRE Judicael Citroën C2 F2 13 32:57,5 +05:15,2 +00:03,8
40 66 ANFRIANI Paul-Etienne/RICOVERI Mallaury Citroën C2 R 2B 32:58,5 +05:16,2 +00:01,0
41 26 BORT Julien/ZAVARSKY Alexy Renault Clio R3 Max R 3 33:08,8 +05:26,5 +00:10,3
42 70 FABRA Jérémy/PONTIER Numa Renault Clio 16S FA 7 33:14,4 +05:32,1 +00:05,6
43 55 MARTELLI Cyril/BRUN Pierre-Marie Peugeot 206 Xs FA 6K 33:18,5 +05:36,2 +00:04,1
44 22 ETTORI Jean-Dominique/GUERRIERI Patrick Citroën Ds3 R 3 33:28,7 +05:46,4 +00:10,2
45 4 MICHELI Joseph/MICHELI Luna-Stella Ford Fiesta A 8W 33:34,2 +05:51,9 +00:05,5
46 23 AGOSTINI Quentin/BARRAL Florian Peugeot 207 Rc R 3 33:36,8 +05:54,5 +00:02,6
47 49 FIGARI Luca/FIGARI Morgan Renault Clio Super 1600 FA 6K 33:41,4 +05:59,1 +00:04,6
48 17 ALEGRE Francis/MURATI Laura BMW 325I FA 8 33:43,4 +06:01,1 +00:02,0
49 89 NAPOLI MELIO Michaël/BERNARDI Dominique Citroën C2 FA 6 33:47,9 +06:05,6 +00:04,5
50 98 NEGRI Jean-Michel/NEGRI Michel Peugeot 106 S16 FN 2 33:51,9 +06:09,6 +00:04,0
51 67 DE MEYER Jean-Michel/FRATTI Eric Peugeot 208 R 2 34:12,2 +06:29,9 +00:20,3
52 30 LAUZERTE Alain/BARBE Isabelle Renault Megane N 4 34:17,7 +06:35,4 +00:05,5
53 93 MARIINI Michaël/REAL Thibaut Citroën Saxo Vts FN 2 34:33,8 +06:51,5 +00:16,1
54 95 BERNOUS Bouchta/MARTINI Andrea Citroën Saxo Vts FN 2 34:48,1 +07:05,8 +00:14,3
55 45 VANGIONI Graziano/BERTIN-MAURICE Kévin Renault Clio Rs F2 14 35:08,3 +07:26,0 +00:20,2
56 105 NICOLI Gérard/GALTIERI Marie-Flore Citroën Ax Sport FN 1 35:10,3 +07:28,0 +00:02,0
57 56 BALESTRACCI Stéphanie/CHIAPPE Patrick Peugeot 206 Xs FA 6K 35:24,6 +07:42,3 +00:14,3
58 97 BORSELLI Charles/MANZONI Cédric Peugeot 106 FN 2 35:26,9 +07:44,6 +00:02,3
59 29 LIMELETTE Marc/PONSOT Francois-Dominique Ford Escort Cosworth FN 4 35:41,1 +07:58,8 +00:14,2
60 82 DAMIANI Marcel/D'ANGELO Enzo Citroën Saxo F2 13 35:46,3 +08:04,0 +00:05,2
61 14 BIANCO Dominique/BERNACCHI Francois-Jean Peugeot 207 S2000 A 7S 36:20,6 +08:38,3 +00:34,3
62 104 BIAGGI Florian/ESCACH Matthieu Peugeot 106 S16 N 2S 36:49,5 +09:07,2 +00:28,9
63 44 MORGANTI Antoine/BIAGGI Yves Peugeot 205 Gti F2 14 37:49,7 +10:07,4 +01:00,2
64 102 TROMBI Philippe/NICOLAI Michaël Peugeot 106 Xsi F2 12 38:16,7 +10:34,4 +00:27,0
65 11 ANTONINI Louis/ESCARTEFIGUE Jules Ford Fiesta R 5 3:32:24,3 +3:04:42,0 +2:54:07,6
Clt Equipage Voiture Gr/Cl Temps Ecart 1er Ecart préc. Catégories
Commentaires: © PatricK Soft  
(Temps forfaitaires=couleur bleue)
Classés:65

Epreuve: Groupe: Catégorie:

 
Retour
Classement après ES4-Morsiglia - Cagnano 1 (23.000 km)